createdAt,value
2019-04-18T00:00:38.995Z,7.77
2019-04-18T00:03:16.467Z,7.78
2019-04-18T00:05:50.135Z,7.76
2019-04-18T00:08:20.364Z,7.72
2019-04-18T00:10:50.572Z,7.67
2019-04-18T00:13:20.830Z,7.64
2019-04-18T00:15:53.205Z,7.63
2019-04-18T00:18:23.505Z,7.68
2019-04-18T00:20:55.818Z,7.56
2019-04-18T00:23:29.265Z,7.64
2019-04-18T00:25:59.648Z,7.62
2019-04-18T00:28:31.074Z,7.62
2019-04-18T00:31:05.709Z,7.57
2019-04-18T00:33:33.759Z,7.41
2019-04-18T00:36:04.101Z,7.48
2019-04-18T00:38:34.292Z,7.47
2019-04-18T00:41:05.819Z,7.47
2019-04-18T00:43:36.198Z,7.41
2019-04-18T00:46:06.730Z,7.43
2019-04-18T00:48:39.807Z,7.43
2019-04-18T00:51:10.114Z,7.36
2019-04-18T00:53:40.376Z,7.36
2019-04-18T00:56:10.901Z,7.38
2019-04-18T00:58:47.994Z,7.34
2019-04-18T01:01:17.490Z,7.29
2019-04-18T01:03:47.655Z,7.26
2019-04-18T01:06:18.210Z,7.19
2019-04-18T01:08:48.935Z,7.20
2019-04-18T01:11:19.167Z,7.15
2019-04-18T01:13:49.766Z,7.17
2019-04-18T01:16:20.100Z,7.14
2019-04-18T01:18:50.795Z,7.10
2019-04-18T01:21:21.896Z,7.11
2019-04-18T01:23:55.525Z,7.16
2019-04-18T01:26:24.302Z,7.11
2019-04-18T01:28:54.776Z,7.09
2019-04-18T01:31:25.158Z,7.13
2019-04-18T01:33:56.549Z,7.03
2019-04-18T01:36:28.322Z,7.01
2019-04-18T01:39:00.052Z,7.03
2019-04-18T01:41:36.106Z,7.04
2019-04-18T01:44:15.811Z,7.04
2019-04-18T01:46:52.881Z,7.02
2019-04-18T01:49:23.461Z,6.98
2019-04-18T01:51:54.374Z,6.95
2019-04-18T01:54:25.240Z,7.06
2019-04-18T01:56:56.148Z,7.06
2019-04-18T01:59:27.268Z,7.04
2019-04-18T02:01:58.022Z,7.04
2019-04-18T02:04:28.766Z,6.97
2019-04-18T02:06:59.714Z,6.98
2019-04-18T02:09:32.092Z,6.99
2019-04-18T02:12:02.156Z,6.91
2019-04-18T02:14:32.467Z,6.99
2019-04-18T02:17:04.772Z,7.01
2019-04-18T02:19:35.010Z,7.01
2019-04-18T02:22:05.942Z,6.92
2019-04-18T02:24:36.633Z,7.01
2019-04-18T02:27:06.845Z,6.93
2019-04-18T02:29:39.175Z,6.90
2019-04-18T02:32:10.358Z,6.91
2019-04-18T02:34:40.725Z,6.90
2019-04-18T02:37:13.399Z,6.85
2019-04-18T02:39:43.989Z,6.79
2019-04-18T02:42:17.293Z,6.80
2019-04-18T02:44:47.093Z,6.85
2019-04-18T02:47:19.335Z,6.89
2019-04-18T02:49:52.298Z,6.93
2019-04-18T02:52:24.764Z,6.94
2019-04-18T02:54:56.040Z,6.91
2019-04-18T02:57:26.871Z,6.96
2019-04-18T03:00:05.733Z,6.93
2019-04-18T03:02:52.937Z,7.01
2019-04-18T03:05:32.471Z,6.92
2019-04-18T03:07:56.245Z,6.84
2019-04-18T03:10:26.937Z,6.85
2019-04-18T03:12:57.935Z,6.82
2019-04-18T03:15:29.250Z,6.82
2019-04-18T03:18:02.816Z,6.78
2019-04-18T03:20:32.371Z,6.73
2019-04-18T03:23:05.882Z,6.75
2019-04-18T03:25:34.950Z,6.74
2019-04-18T03:28:10.001Z,6.73
2019-04-18T03:30:37.848Z,6.78
2019-04-18T03:33:16.540Z,6.78
2019-04-18T03:35:48.843Z,6.74
2019-04-18T03:38:15.278Z,6.74
2019-04-18T03:40:45.614Z,6.84
2019-04-18T03:43:16.948Z,6.82
2019-04-18T03:46:09.490Z,6.78
2019-04-18T03:48:39.777Z,6.72
2019-04-18T03:51:10.055Z,6.70
2019-04-18T03:53:40.835Z,6.76
2019-04-18T03:56:11.081Z,6.77
2019-04-18T03:58:42.639Z,6.83
2019-04-18T04:01:13.725Z,6.80
2019-04-18T04:03:47.598Z,6.73
2019-04-18T04:06:20.637Z,6.82
2019-04-18T04:08:49.190Z,6.82
2019-04-18T04:11:22.605Z,6.80
2019-04-18T04:13:51.419Z,6.77
2019-04-18T04:16:23.213Z,6.81
2019-04-18T04:19:03.577Z,6.84
2019-04-18T04:21:33.976Z,6.83
2019-04-18T04:24:04.347Z,6.83
2019-04-18T04:26:35.778Z,6.83
2019-04-18T04:29:06.436Z,6.79
2019-04-18T04:31:36.682Z,6.74
2019-04-18T04:34:09.950Z,6.76
2019-04-18T04:36:39.929Z,6.75
2019-04-18T04:39:10.198Z,6.80
2019-04-18T04:41:40.608Z,6.78
2019-04-18T04:44:11.362Z,6.84
2019-04-18T04:46:42.081Z,6.86
2019-04-18T04:49:13.841Z,6.88
2019-04-18T04:52:09.460Z,6.91
2019-04-18T04:54:46.330Z,6.92
2019-04-18T04:57:41.563Z,6.83
2019-04-18T05:00:40.499Z,6.84
2019-04-18T05:03:15.580Z,6.84
2019-04-18T05:05:43.339Z,6.90
2019-04-18T05:08:14.291Z,6.97
2019-04-18T05:10:47.870Z,6.99
2019-04-18T05:13:17.437Z,7.06
2019-04-18T05:15:50.247Z,7.08
2019-04-18T05:18:20.276Z,7.13
2019-04-18T05:20:51.913Z,7.18
2019-04-18T05:23:22.730Z,7.19
2019-04-18T05:25:53.278Z,7.20
2019-04-18T05:28:23.525Z,7.26
2019-04-18T05:30:53.778Z,7.29
2019-04-18T05:33:24.159Z,7.28
2019-04-18T05:36:00.905Z,7.36
2019-04-18T05:38:27.248Z,7.43
2019-04-18T05:40:57.614Z,7.45
2019-04-18T05:43:27.840Z,7.48
2019-04-18T05:45:59.517Z,7.49
2019-04-18T05:48:47.654Z,7.60
2019-04-18T05:51:25.307Z,7.62
2019-04-18T05:54:18.182Z,7.70
2019-04-18T05:56:49.304Z,7.76
2019-04-18T05:59:30.739Z,7.88
2019-04-18T06:02:39.316Z,7.90
2019-04-18T06:05:25.574Z,7.97
2019-04-18T06:08:00.287Z,8.10
2019-04-18T06:10:40.970Z,8.17
2019-04-18T06:13:11.418Z,8.26
2019-04-18T06:16:16.226Z,8.31
2019-04-18T06:19:05.980Z,8.38
2019-04-18T06:21:51.755Z,8.47
2019-04-18T06:24:30.867Z,8.60
2019-04-18T06:27:28.434Z,8.56
2019-04-18T06:30:23.988Z,8.56
2019-04-18T06:33:10.538Z,8.65
2019-04-18T06:35:41.310Z,8.73
2019-04-18T06:38:19.796Z,8.83
2019-04-18T06:40:51.744Z,8.93
2019-04-18T06:43:24.526Z,9.01
2019-04-18T06:45:54.962Z,9.25
2019-04-18T06:48:26.275Z,9.34
2019-04-18T06:50:58.178Z,9.39
2019-04-18T06:53:28.602Z,9.63
2019-04-18T06:55:59.248Z,9.64
2019-04-18T06:58:35.368Z,9.68
2019-04-18T07:01:02.780Z,9.82
2019-04-18T07:03:34.372Z,9.84
2019-04-18T07:06:05.516Z,9.87
2019-04-18T07:08:45.647Z,9.88
2019-04-18T07:11:25.010Z,9.93
2019-04-18T07:13:59.129Z,10.05
2019-04-18T07:16:29.524Z,10.24
2019-04-18T07:19:00.400Z,10.28
2019-04-18T07:21:38.360Z,10.50
2019-04-18T07:24:08.935Z,10.72
2019-04-18T07:26:39.214Z,10.46
2019-04-18T07:29:09.871Z,10.65
2019-04-18T07:31:40.615Z,10.79
2019-04-18T07:34:12.264Z,10.83
2019-04-18T07:36:42.515Z,10.96
2019-04-18T07:39:14.288Z,10.81
2019-04-18T07:41:44.563Z,10.96
2019-04-18T07:44:21.457Z,11.11
2019-04-18T07:46:51.913Z,11.34
2019-04-18T07:49:22.214Z,11.59
2019-04-18T07:51:52.844Z,11.68
2019-04-18T07:54:24.838Z,11.67
2019-04-18T07:56:55.116Z,11.67
2019-04-18T07:59:25.668Z,11.83
2019-04-18T08:01:57.907Z,11.82
2019-04-18T08:04:28.929Z,11.79
2019-04-18T08:06:59.429Z,11.86
2019-04-18T08:09:29.747Z,11.84
2019-04-18T08:12:01.234Z,12.11
2019-04-18T08:14:32.309Z,12.17
2019-04-18T08:17:02.744Z,12.20
2019-04-18T08:19:33.890Z,12.54
2019-04-18T08:22:04.257Z,12.54
2019-04-18T08:24:34.991Z,12.40
2019-04-18T08:27:07.407Z,12.60
2019-04-18T08:29:38.289Z,12.60
2019-04-18T08:32:13.775Z,12.40
2019-04-18T08:34:42.027Z,12.40
2019-04-18T08:37:12.321Z,12.40
2019-04-18T08:39:49.132Z,12.68
2019-04-18T08:42:36.533Z,12.68
2019-04-18T08:45:16.679Z,12.93
2019-04-18T08:47:49.417Z,13.06
2019-04-18T08:50:27.816Z,13.11
2019-04-18T08:52:58.236Z,13.02
2019-04-18T08:55:42.063Z,13.41
2019-04-18T08:58:12.457Z,13.41
2019-04-18T09:00:43.148Z,13.56
2019-04-18T09:03:25.454Z,13.51
2019-04-18T09:05:49.531Z,13.51
2019-04-18T09:08:19.248Z,13.64
2019-04-18T09:10:53.975Z,13.86
2019-04-18T09:13:28.199Z,13.98
2019-04-18T09:15:54.786Z,14.19
2019-04-18T09:18:25.863Z,14.40
2019-04-18T09:20:57.293Z,14.78
2019-04-18T09:23:28.335Z,14.93
2019-04-18T09:26:00.632Z,15.28
2019-04-18T09:28:39.227Z,15.68
2019-04-18T09:31:04.483Z,16.25
2019-04-18T09:33:35.592Z,16.78
2019-04-18T09:36:06.946Z,16.79
2019-04-18T09:38:38.443Z,17.73
2019-04-18T09:41:09.601Z,17.55
2019-04-18T09:43:43.293Z,17.35
2019-04-18T09:46:15.597Z,16.97
2019-04-18T09:48:46.074Z,17.55
2019-04-18T09:51:19.751Z,18.00
2019-04-18T09:53:48.778Z,17.35
2019-04-18T09:56:19.137Z,17.87
2019-04-18T09:58:51.790Z,16.91
2019-04-18T10:01:22.588Z,16.84
2019-04-18T10:03:52.950Z,17.07
2019-04-18T10:06:23.557Z,17.57
2019-04-18T10:08:53.822Z,17.68
2019-04-18T10:11:24.270Z,17.67
2019-04-18T10:13:57.339Z,17.83
2019-04-18T10:16:29.697Z,18.03
2019-04-18T10:19:00.612Z,18.55
2019-04-18T10:21:35.648Z,18.83
2019-04-18T10:24:07.603Z,18.02
2019-04-18T10:26:51.035Z,18.30
2019-04-18T10:29:29.891Z,18.18
2019-04-18T10:32:00.205Z,18.63
2019-04-18T10:34:31.006Z,18.23
2019-04-18T10:37:01.366Z,18.66
2019-04-18T10:39:31.845Z,18.51
2019-04-18T10:42:02.565Z,17.81
2019-04-18T10:44:33.758Z,18.11
2019-04-18T10:47:06.338Z,18.26
2019-04-18T10:49:36.977Z,18.89
2019-04-18T10:52:07.718Z,19.42
2019-04-18T10:54:37.988Z,19.65
2019-04-18T10:57:08.457Z,19.48
2019-04-18T10:59:38.862Z,18.40
2019-04-18T11:02:10.029Z,18.88
2019-04-18T11:04:40.467Z,19.25
2019-04-18T11:07:10.921Z,19.27
2019-04-18T11:09:41.199Z,18.89
2019-04-18T11:12:11.437Z,18.07
2019-04-18T11:14:42.354Z,19.09
2019-04-18T11:17:13.121Z,18.78
2019-04-18T11:19:43.503Z,18.91
2019-04-18T11:22:14.136Z,19.28
2019-04-18T11:24:44.407Z,19.53
2019-04-18T11:27:14.753Z,19.85
2019-04-18T11:29:45.472Z,19.81
2019-04-18T11:32:16.248Z,19.11
2019-04-18T11:34:47.004Z,19.13
2019-04-18T11:37:17.527Z,18.78
2019-04-18T11:39:47.780Z,19.18
2019-04-18T11:42:18.687Z,19.24
2019-04-18T11:44:49.449Z,19.41
2019-04-18T11:47:19.763Z,19.51
2019-04-18T11:49:50.018Z,19.51
2019-04-18T11:52:20.377Z,19.30
2019-04-18T11:54:51.007Z,18.93
2019-04-18T11:57:21.705Z,18.90
2019-04-18T11:59:54.898Z,19.28
2019-04-18T12:02:34.223Z,19.38
2019-04-18T12:05:12.815Z,19.34
2019-04-18T12:07:43.594Z,18.99
2019-04-18T12:10:14.685Z,19.53
2019-04-18T12:12:47.840Z,19.72
2019-04-18T12:15:19.328Z,20.14
2019-04-18T12:17:49.556Z,19.58
2019-04-18T12:20:19.968Z,19.10
2019-04-18T12:22:50.256Z,19.21
2019-04-18T12:25:20.451Z,19.43
2019-04-18T12:27:50.754Z,19.03
2019-04-18T12:30:21.487Z,19.30
2019-04-18T12:32:51.798Z,19.12
2019-04-18T12:35:22.113Z,18.58
2019-04-18T12:37:52.404Z,18.58
2019-04-18T12:40:23.172Z,18.66
2019-04-18T12:42:53.618Z,18.99
2019-04-18T12:45:23.899Z,19.82
2019-04-18T12:47:54.160Z,19.95
2019-04-18T12:50:28.178Z,20.52
2019-04-18T12:52:57.688Z,21.36
2019-04-18T12:55:28.140Z,21.78
2019-04-18T12:57:58.870Z,22.18
2019-04-18T13:00:29.562Z,22.13
2019-04-18T13:03:01.046Z,22.16
2019-04-18T13:05:31.260Z,21.14
2019-04-18T13:08:29.583Z,21.27
2019-04-18T13:11:31.203Z,21.83
2019-04-18T13:14:19.348Z,21.48
2019-04-18T13:17:08.218Z,21.15
2019-04-18T13:19:38.542Z,20.44
2019-04-18T13:22:08.935Z,20.36
2019-04-18T13:24:39.142Z,20.49
2019-04-18T13:27:09.758Z,20.70
2019-04-18T13:29:40.098Z,20.87
2019-04-18T13:32:10.468Z,21.03
2019-04-18T13:34:41.326Z,21.24
2019-04-18T13:37:12.071Z,21.76
2019-04-18T13:39:42.628Z,21.12
2019-04-18T13:42:13.438Z,20.78
2019-04-18T13:44:44.957Z,20.82
2019-04-18T13:47:17.317Z,21.25
2019-04-18T13:49:47.611Z,21.17
2019-04-18T13:52:18.821Z,20.76
2019-04-18T13:54:49.540Z,20.32
2019-04-18T13:57:20.067Z,20.18
2019-04-18T13:59:50.746Z,19.86
2019-04-18T14:02:22.518Z,19.54
2019-04-18T14:04:53.677Z,20.31
2019-04-18T14:07:23.921Z,21.08
2019-04-18T14:09:54.373Z,20.61
2019-04-18T14:12:24.724Z,20.93
2019-04-18T14:14:55.466Z,20.70
2019-04-18T14:17:26.334Z,21.33
2019-04-18T14:19:56.671Z,21.32
2019-04-18T14:22:28.046Z,21.17
2019-04-18T14:25:02.918Z,20.92
2019-04-18T14:27:34.224Z,20.26
2019-04-18T14:30:05.537Z,20.11
2019-04-18T14:32:43.020Z,20.32
2019-04-18T14:35:14.473Z,20.67
2019-04-18T14:37:45.907Z,20.80
2019-04-18T14:40:16.947Z,20.63
2019-04-18T14:42:47.459Z,20.25
2019-04-18T14:45:17.825Z,20.49
2019-04-18T14:48:01.917Z,20.55
2019-04-18T14:50:20.560Z,21.06
2019-04-18T14:52:51.624Z,20.92
2019-04-18T14:55:21.957Z,20.99
2019-04-18T14:57:55.201Z,20.92
2019-04-18T15:00:41.148Z,20.88
2019-04-18T15:02:58.578Z,20.55
2019-04-18T15:05:34.491Z,20.95
2019-04-18T15:08:06.034Z,21.09
2019-04-18T15:10:41.686Z,21.64
2019-04-18T15:13:11.880Z,22.02
2019-04-18T15:15:42.226Z,21.86
2019-04-18T15:18:14.631Z,21.63
2019-04-18T15:20:45.003Z,21.61
2019-04-18T15:23:15.498Z,21.41
2019-04-18T15:25:45.966Z,21.27
2019-04-18T15:28:16.629Z,21.44
2019-04-18T15:30:47.475Z,19.97
2019-04-18T15:33:19.158Z,18.69
2019-04-18T15:35:50.485Z,18.12
2019-04-18T15:38:22.273Z,17.56
2019-04-18T15:40:53.624Z,17.50
2019-04-18T15:43:23.886Z,17.17
2019-04-18T15:46:13.286Z,16.82
2019-04-18T15:48:46.135Z,16.48
2019-04-18T15:51:15.607Z,16.50
2019-04-18T15:53:47.209Z,16.36
2019-04-18T15:56:17.891Z,16.38
2019-04-18T15:58:48.858Z,16.33
2019-04-18T16:01:19.240Z,16.41
2019-04-18T16:03:50.298Z,16.30
2019-04-18T16:06:20.723Z,16.15
2019-04-18T16:08:51.047Z,16.05
2019-04-18T16:11:24.434Z,16.09
2019-04-18T16:13:54.697Z,15.93
2019-04-18T16:16:25.132Z,15.87
2019-04-18T16:18:55.929Z,15.85
2019-04-18T16:21:26.642Z,15.80
2019-04-18T16:23:57.300Z,15.79
2019-04-18T16:26:28.085Z,15.77
2019-04-18T16:28:59.236Z,15.70
2019-04-18T16:31:29.780Z,15.69
2019-04-18T16:34:00.799Z,15.81
2019-04-18T16:36:32.710Z,15.70
2019-04-18T16:39:03.513Z,15.65
2019-04-18T16:41:34.571Z,15.53
2019-04-18T16:44:05.657Z,15.40
2019-04-18T16:46:36.573Z,15.45
2019-04-18T16:49:07.366Z,15.36
2019-04-18T16:51:39.821Z,15.40
2019-04-18T16:54:10.544Z,15.36
2019-04-18T16:56:41.112Z,15.38
2019-04-18T16:59:11.739Z,15.44
2019-04-18T17:01:42.073Z,15.40
2019-04-18T17:04:13.453Z,15.31
2019-04-18T17:06:45.947Z,15.39
2019-04-18T17:09:25.446Z,15.39
2019-04-18T17:11:55.855Z,15.27
2019-04-18T17:14:26.433Z,15.22
2019-04-18T17:16:56.758Z,15.28
2019-04-18T17:19:29.198Z,15.11
2019-04-18T17:21:59.542Z,15.05
2019-04-18T17:24:30.412Z,14.89
2019-04-18T17:27:03.040Z,14.87
2019-04-18T17:29:35.806Z,14.75
2019-04-18T17:32:06.099Z,14.75
2019-04-18T17:34:44.757Z,14.71
2019-04-18T17:37:24.129Z,14.66
2019-04-18T17:39:59.575Z,14.51
2019-04-18T17:42:14.550Z,14.42
2019-04-18T17:44:57.368Z,14.39
2019-04-18T17:47:25.531Z,14.38
2019-04-18T17:50:00.233Z,14.26
2019-04-18T17:52:41.884Z,14.15
2019-04-18T17:55:19.490Z,14.06
2019-04-18T17:57:34.838Z,13.99
2019-04-18T18:00:09.409Z,13.97
2019-04-18T18:02:38.829Z,13.89
2019-04-18T18:05:16.643Z,13.83
2019-04-18T18:07:41.485Z,13.71
2019-04-18T18:10:13.606Z,13.73
2019-04-18T18:12:44.067Z,13.52
2019-04-18T18:15:43.375Z,13.42
2019-04-18T18:18:13.047Z,13.36
2019-04-18T18:20:54.257Z,13.23
2019-04-18T18:23:15.895Z,13.22
2019-04-18T18:25:50.291Z,13.03
2019-04-18T18:28:23.765Z,12.99
2019-04-18T18:30:54.243Z,12.95
2019-04-18T18:33:25.463Z,12.92
2019-04-18T18:36:09.683Z,12.73
2019-04-18T18:38:35.622Z,12.68
2019-04-18T18:41:09.714Z,12.54
2019-04-18T18:43:38.862Z,12.41
2019-04-18T18:46:09.599Z,12.29
2019-04-18T18:48:47.199Z,12.23
2019-04-18T18:51:14.136Z,12.02
2019-04-18T18:53:45.095Z,11.91
2019-04-18T18:56:19.184Z,11.84
2019-04-18T18:58:51.502Z,11.62
2019-04-18T19:01:27.634Z,11.45
2019-04-18T19:03:55.887Z,11.37
2019-04-18T19:06:37.281Z,11.39
2019-04-18T19:09:20.652Z,11.33
2019-04-18T19:11:49.212Z,11.24
2019-04-18T19:14:16.942Z,11.08
2019-04-18T19:16:47.445Z,10.92
2019-04-18T19:19:09.744Z,10.84
2019-04-18T19:21:43.756Z,10.72
2019-04-18T19:24:15.612Z,10.61
2019-04-18T19:26:44.470Z,10.55
2019-04-18T19:29:23.466Z,10.45
2019-04-18T19:31:54.646Z,10.38
2019-04-18T19:34:30.866Z,10.31
2019-04-18T19:37:16.040Z,10.24
2019-04-18T19:39:55.858Z,10.16
2019-04-18T19:42:12.665Z,10.16
2019-04-18T19:44:40.449Z,10.10
2019-04-18T19:47:11.004Z,10.04
2019-04-18T19:49:42.394Z,10.00
2019-04-18T19:52:19.003Z,9.94
2019-04-18T19:54:47.565Z,9.94
2019-04-18T19:57:18.706Z,9.90
2019-04-18T19:59:49.295Z,9.75
2019-04-18T20:02:20.907Z,9.63
2019-04-18T20:04:54.158Z,9.63
2019-04-18T20:07:35.219Z,9.67
2019-04-18T20:10:06.283Z,9.59
2019-04-18T20:12:37.761Z,9.52
2019-04-18T20:15:02.631Z,9.45
2019-04-18T20:17:34.842Z,9.43
2019-04-18T20:20:07.369Z,9.31
2019-04-18T20:22:39.224Z,9.24
2019-04-18T20:25:10.338Z,9.15
2019-04-18T20:27:44.490Z,9.21
2019-04-18T20:30:20.653Z,9.15
2019-04-18T20:32:48.588Z,9.14
2019-04-18T20:35:24.578Z,9.10
2019-04-18T20:38:03.134Z,9.08
2019-04-18T20:40:39.222Z,9.05
2019-04-18T20:43:10.964Z,9.02
2019-04-18T20:45:49.019Z,9.02
2019-04-18T20:48:11.163Z,8.94
2019-04-18T20:50:45.904Z,8.94
2019-04-18T20:53:29.556Z,8.94
2019-04-18T20:55:47.131Z,8.99
2019-04-18T20:58:15.946Z,8.98
2019-04-18T21:00:45.111Z,9.05
2019-04-18T21:03:18.649Z,9.10
2019-04-18T21:05:49.179Z,9.03
2019-04-18T21:08:31.172Z,9.00
2019-04-18T21:10:53.606Z,9.01
2019-04-18T21:13:24.212Z,9.04
2019-04-18T21:16:02.862Z,8.86
2019-04-18T21:18:32.436Z,8.89
2019-04-18T21:21:02.734Z,8.94
2019-04-18T21:23:33.262Z,8.89
2019-04-18T21:26:09.283Z,8.85
2019-04-18T21:28:39.558Z,8.79
2019-04-18T21:31:10.418Z,8.77
2019-04-18T21:33:42.559Z,8.68
2019-04-18T21:36:18.564Z,8.54
2019-04-18T21:38:55.222Z,8.45
2019-04-18T21:41:23.701Z,8.48
2019-04-18T21:44:03.959Z,8.48
2019-04-18T21:46:39.436Z,8.36
2019-04-18T21:49:09.775Z,8.40
2019-04-18T21:51:43.527Z,8.38
2019-04-18T21:54:13.750Z,8.36
2019-04-18T21:56:49.528Z,8.42
2019-04-18T21:59:30.476Z,8.41
2019-04-18T22:01:51.328Z,8.36
2019-04-18T22:04:27.554Z,8.38
2019-04-18T22:07:09.141Z,8.45
2019-04-18T22:09:26.343Z,8.45
2019-04-18T22:12:01.591Z,8.46
2019-04-18T22:14:29.949Z,8.41
2019-04-18T22:17:01.217Z,8.39
2019-04-18T22:19:31.507Z,8.37
2019-04-18T22:22:03.356Z,8.22
2019-04-18T22:24:33.783Z,8.16
2019-04-18T22:27:10.585Z,8.12
2019-04-18T22:29:38.416Z,8.13
2019-04-18T22:32:14.113Z,8.14
2019-04-18T22:34:41.217Z,8.07
2019-04-18T22:37:25.142Z,8.07
2019-04-18T22:39:45.146Z,8.12
2019-04-18T22:42:19.380Z,8.08
2019-04-18T22:44:57.104Z,8.14
2019-04-18T22:47:22.856Z,8.07
2019-04-18T22:49:56.307Z,8.13
2019-04-18T22:52:33.076Z,8.14
2019-04-18T22:55:02.024Z,8.14
2019-04-18T22:57:37.888Z,8.08
2019-04-18T23:00:06.030Z,8.14
2019-04-18T23:02:36.352Z,8.11
2019-04-18T23:05:06.852Z,8.09
2019-04-18T23:07:47.923Z,8.06
2019-04-18T23:10:13.557Z,8.14
2019-04-18T23:12:45.371Z,8.03
2019-04-18T23:15:14.149Z,8.07
2019-04-18T23:17:45.693Z,8.02
2019-04-18T23:20:22.665Z,8.07
2019-04-18T23:22:51.513Z,7.99
2019-04-18T23:25:26.259Z,8.05
2019-04-18T23:27:54.595Z,7.96
2019-04-18T23:30:29.333Z,7.97
2019-04-18T23:32:57.643Z,7.96
2019-04-18T23:35:29.185Z,7.96
2019-04-18T23:38:03.460Z,7.97
2019-04-18T23:40:33.723Z,7.87
2019-04-18T23:43:04.041Z,7.94
2019-04-18T23:45:37.760Z,7.98
2019-04-18T23:48:07.493Z,8.04
2019-04-18T23:50:37.970Z,7.96
2019-04-18T23:53:09.635Z,8.01
2019-04-18T23:55:43.085Z,7.98
2019-04-18T23:58:14.276Z,8.00
